createdAt,value
2019-03-04T00:01:37.194Z,94.50
2019-03-04T00:04:09.714Z,94.60
2019-03-04T00:06:42.570Z,94.60
2019-03-04T00:09:14.962Z,94.40
2019-03-04T00:11:47.436Z,94.50
2019-03-04T00:14:19.826Z,94.40
2019-03-04T00:16:53.182Z,94.40
2019-03-04T00:19:25.611Z,94.40
2019-03-04T00:21:58.297Z,94.40
2019-03-04T00:24:30.596Z,94.40
2019-03-04T00:27:04.787Z,94.30
2019-03-04T00:29:37.061Z,94.20
2019-03-04T00:32:09.479Z,94.00
2019-03-04T00:34:41.993Z,94.00
2019-03-04T00:37:14.649Z,94.10
2019-03-04T00:39:46.868Z,94.00
2019-03-04T00:42:19.507Z,93.90
2019-03-04T00:44:51.814Z,93.90
2019-03-04T00:47:24.887Z,93.70
2019-03-04T00:49:58.017Z,93.40
2019-03-04T00:52:30.663Z,93.40
2019-03-04T00:55:03.049Z,93.40
2019-03-04T00:57:35.386Z,93.40
2019-03-04T01:00:10.583Z,93.20
2019-03-04T01:02:43.038Z,93.20
2019-03-04T01:05:15.812Z,93.00
2019-03-04T01:07:48.987Z,93.00
2019-03-04T01:10:22.896Z,92.80
2019-03-04T01:12:55.931Z,92.50
2019-03-04T01:15:29.666Z,92.60
2019-03-04T01:18:01.954Z,92.10
2019-03-04T01:20:34.417Z,92.20
2019-03-04T01:23:07.422Z,92.10
2019-03-04T01:25:40.192Z,91.80
2019-03-04T01:28:12.529Z,91.70
2019-03-04T01:30:45.206Z,91.10
2019-03-04T01:33:17.500Z,90.60
2019-03-04T01:35:49.837Z,90.80
2019-03-04T01:38:22.128Z,91.10
2019-03-04T01:40:54.926Z,91.00
2019-03-04T01:43:27.249Z,91.00
2019-03-04T01:45:59.766Z,91.00
2019-03-04T01:48:32.073Z,91.00
2019-03-04T01:51:04.637Z,90.90
2019-03-04T01:53:37.131Z,91.00
2019-03-04T01:56:09.612Z,90.90
2019-03-04T01:58:42.251Z,90.60
2019-03-04T02:01:15.014Z,90.80
2019-03-04T02:03:47.532Z,90.60
2019-03-04T02:06:20.046Z,90.00
2019-03-04T02:08:52.699Z,89.90
2019-03-04T02:11:25.583Z,90.00
2019-03-04T02:13:58.239Z,87.80
2019-03-04T02:16:31.464Z,86.60
2019-03-04T02:19:04.038Z,85.90
2019-03-04T02:21:36.759Z,85.00
2019-03-04T02:24:11.984Z,84.90
2019-03-04T02:26:44.461Z,83.90
2019-03-04T02:29:17.226Z,83.50
2019-03-04T02:31:50.003Z,83.20
2019-03-04T02:34:22.396Z,82.80
2019-03-04T02:36:54.918Z,81.10
2019-03-04T02:39:27.345Z,81.50
2019-03-04T02:41:59.668Z,79.60
2019-03-04T02:44:33.151Z,79.20
2019-03-04T02:47:05.461Z,78.90
2019-03-04T02:49:38.033Z,78.70
2019-03-04T02:52:10.424Z,78.20
2019-03-04T02:54:42.918Z,77.30
2019-03-04T02:57:15.447Z,77.40
2019-03-04T02:59:48.225Z,76.50
2019-03-04T03:02:20.630Z,76.40
2019-03-04T03:04:53.073Z,76.20
2019-03-04T03:07:25.354Z,76.10
2019-03-04T03:09:57.917Z,76.00
2019-03-04T03:12:30.378Z,74.00
2019-03-04T03:15:02.807Z,74.40
2019-03-04T03:17:35.897Z,74.20
2019-03-04T03:20:10.565Z,74.50
2019-03-04T03:22:43.134Z,74.00
2019-03-04T03:25:16.828Z,72.70
2019-03-04T03:27:50.501Z,72.80
2019-03-04T03:30:24.418Z,71.80
2019-03-04T03:32:56.805Z,73.20
2019-03-04T03:35:29.228Z,71.30
2019-03-04T03:38:01.715Z,71.20
2019-03-04T03:40:34.032Z,71.20
2019-03-04T03:43:06.662Z,69.30
2019-03-04T03:45:39.166Z,70.30
2019-03-04T03:48:12.131Z,70.10
2019-03-04T03:50:44.537Z,70.70
2019-03-04T03:53:17.231Z,70.50
2019-03-04T03:55:49.875Z,70.10
2019-03-04T03:58:25.220Z,68.90
2019-03-04T04:00:56.990Z,67.90
2019-03-04T04:03:29.775Z,67.50
2019-03-04T04:06:02.346Z,67.30
2019-03-04T04:08:35.036Z,66.60
2019-03-04T04:11:07.365Z,65.60
2019-03-04T04:13:39.823Z,65.30
2019-03-04T04:16:12.399Z,64.10
2019-03-04T04:18:44.926Z,63.10
2019-03-04T04:21:17.372Z,64.30
2019-03-04T04:23:50.168Z,64.40
2019-03-04T04:26:22.620Z,62.80
2019-03-04T04:28:56.669Z,63.50
2019-03-04T04:31:28.986Z,61.80
2019-03-04T04:34:01.683Z,62.30
2019-03-04T05:00:15.059Z,59.80
2019-03-04T05:02:47.585Z,59.10
2019-03-04T05:05:20.125Z,59.70
2019-03-04T05:07:52.549Z,58.80
2019-03-04T05:10:27.402Z,59.10
2019-03-04T05:12:59.735Z,57.60
2019-03-04T05:15:32.208Z,57.50
2019-03-04T05:18:04.545Z,56.70
2019-03-04T05:20:37.226Z,57.80
2019-03-04T05:23:09.818Z,59.00
2019-03-04T05:25:41.960Z,55.70
2019-03-04T05:28:14.623Z,55.10
2019-03-04T05:30:47.084Z,54.40
2019-03-04T05:33:19.853Z,54.70
2019-03-04T05:35:52.553Z,54.80
2019-03-04T05:38:25.526Z,54.00
2019-03-04T05:40:57.969Z,53.80
2019-03-04T05:43:30.255Z,54.10
2019-03-04T05:46:03.101Z,53.30
2019-03-04T05:48:35.474Z,52.20
2019-03-04T05:51:08.196Z,52.60
2019-03-04T05:53:40.552Z,52.00
2019-03-04T05:56:13.177Z,52.10
2019-03-04T05:58:45.674Z,52.70
2019-03-04T06:01:20.808Z,51.80
2019-03-04T06:03:55.760Z,52.80
2019-03-04T06:06:29.596Z,51.90
2019-03-04T06:09:02.729Z,51.10
2019-03-04T06:11:36.846Z,50.00
2019-03-04T06:14:10.675Z,49.90
2019-03-04T06:16:47.217Z,49.70
2019-03-04T06:19:17.213Z,47.20
2019-03-04T06:21:49.879Z,45.60
2019-03-04T06:24:22.211Z,48.20
2019-03-04T06:26:54.664Z,46.60
2019-03-04T06:29:27.290Z,47.90
2019-03-04T06:32:00.137Z,47.60
2019-03-04T06:34:32.799Z,47.30
2019-03-04T06:37:05.721Z,47.30
2019-03-04T06:39:38.526Z,48.60
2019-03-04T06:42:11.413Z,47.00
2019-03-04T06:44:56.369Z,45.60
2019-03-04T06:47:29.031Z,44.00
2019-03-04T06:50:02.051Z,44.40
2019-03-04T06:52:34.731Z,45.70
2019-03-04T06:55:27.578Z,44.30
2019-03-04T06:58:00.661Z,42.20
2019-03-04T07:00:35.561Z,41.70
2019-03-04T07:03:08.884Z,43.80
2019-03-04T07:05:44.055Z,43.80
2019-03-04T07:08:20.001Z,43.40
2019-03-04T07:10:52.991Z,42.50
2019-03-04T07:13:26.184Z,43.50
2019-03-04T07:16:18.949Z,43.30
2019-03-04T07:18:51.684Z,42.90
2019-03-04T07:21:24.074Z,42.90
2019-03-04T07:23:56.834Z,42.80
2019-03-04T07:26:30.216Z,40.10
2019-03-04T07:29:02.827Z,41.80
2019-03-04T07:31:35.532Z,41.90
2019-03-04T07:34:07.930Z,41.20
2019-03-04T07:36:40.606Z,41.10
2019-03-04T07:39:14.281Z,41.80
2019-03-04T07:41:46.948Z,41.40
2019-03-04T07:44:19.531Z,40.80
2019-03-04T07:46:51.998Z,41.10
2019-03-04T07:49:25.457Z,41.90
2019-03-04T07:51:58.165Z,40.50
2019-03-04T07:54:30.663Z,41.90
2019-03-04T07:57:03.229Z,40.40
2019-03-04T07:59:35.807Z,40.60
2019-03-04T08:02:08.941Z,40.90
2019-03-04T08:04:41.599Z,39.40
2019-03-04T08:07:16.731Z,40.10
2019-03-04T08:09:51.220Z,40.70
2019-03-04T08:12:26.384Z,40.10
2019-03-04T08:14:58.791Z,41.00
2019-03-04T08:17:32.684Z,41.30
2019-03-04T08:20:05.714Z,41.20
2019-03-04T08:22:38.408Z,42.60
2019-03-04T08:25:12.845Z,42.20
2019-03-04T08:27:45.442Z,41.80
2019-03-04T08:30:20.767Z,41.60
2019-03-04T08:32:53.724Z,41.50
2019-03-04T08:35:26.128Z,42.50
2019-03-04T08:37:58.892Z,42.00
2019-03-04T08:40:31.214Z,41.80
2019-03-04T08:43:03.913Z,41.70
2019-03-04T08:45:36.380Z,41.50
2019-03-04T08:48:10.715Z,42.40
2019-03-04T08:50:42.898Z,41.30
2019-03-04T08:53:15.441Z,40.90
2019-03-04T08:55:47.801Z,40.10
2019-03-04T08:58:20.482Z,42.00
2019-03-04T09:00:52.796Z,42.50
2019-03-04T09:03:25.261Z,42.00
2019-03-04T09:05:57.621Z,41.70
2019-03-04T09:08:30.223Z,41.60
2019-03-04T09:11:02.530Z,41.50
2019-03-04T09:13:35.195Z,41.90
2019-03-04T09:16:07.737Z,41.60
2019-03-04T09:18:40.213Z,42.10
2019-03-04T09:21:12.624Z,42.50
2019-03-04T09:23:45.303Z,42.70
2019-03-04T09:26:18.269Z,42.50
2019-03-04T09:28:50.882Z,44.10
2019-03-04T09:31:23.182Z,43.70
2019-03-04T09:33:55.819Z,43.90
2019-03-04T09:36:28.542Z,43.80
2019-03-04T09:39:01.939Z,44.00
2019-03-04T09:41:35.495Z,44.50
2019-03-04T09:44:08.797Z,45.00
2019-03-04T09:46:41.055Z,44.60
2019-03-04T09:49:14.292Z,44.90
2019-03-04T09:51:46.788Z,45.20
2019-03-04T09:54:19.366Z,45.90
2019-03-04T09:56:51.846Z,45.90
2019-03-04T09:59:24.529Z,46.50
2019-03-04T10:01:58.054Z,46.90
2019-03-04T10:04:33.498Z,46.80
2019-03-04T10:07:08.933Z,47.20
2019-03-04T10:09:43.475Z,47.30
2019-03-04T10:12:17.923Z,47.60
2019-03-04T10:14:52.619Z,47.10
2019-03-04T10:17:27.640Z,47.70
2019-03-04T10:20:02.428Z,46.90
2019-03-04T10:22:37.270Z,47.50
2019-03-04T10:25:12.652Z,46.90
2019-03-04T10:27:47.090Z,47.10
2019-03-04T10:30:22.536Z,47.30
2019-03-04T10:32:57.315Z,47.00
2019-03-04T10:35:32.604Z,47.60
2019-03-04T10:38:07.074Z,47.10
2019-03-04T10:40:41.824Z,47.90
2019-03-04T10:43:16.302Z,48.10
2019-03-04T10:45:52.114Z,48.30
2019-03-04T10:48:25.502Z,48.40
2019-03-04T10:50:58.438Z,48.80
2019-03-04T10:53:31.114Z,48.90
2019-03-04T10:56:03.497Z,49.00
2019-03-04T10:58:35.977Z,49.70
2019-03-04T11:01:08.918Z,50.70
2019-03-04T11:03:41.460Z,51.40
2019-03-04T11:06:13.991Z,51.40
2019-03-04T11:08:46.828Z,51.40
2019-03-04T11:11:29.307Z,51.80
2019-03-04T11:13:53.287Z,51.90
2019-03-04T11:16:25.750Z,52.40
2019-03-04T11:18:58.016Z,52.80
2019-03-04T11:21:30.661Z,53.20
2019-03-04T11:24:03.691Z,53.80
2019-03-04T11:26:35.923Z,54.10
2019-03-04T11:29:09.962Z,54.40
2019-03-04T11:31:42.278Z,54.50
2019-03-04T11:34:14.623Z,55.10
2019-03-04T11:36:47.008Z,54.90
2019-03-04T11:39:23.045Z,55.20
2019-03-04T11:41:55.340Z,55.80
2019-03-04T11:44:27.840Z,56.00
2019-03-04T11:47:00.360Z,57.30
2019-03-04T11:49:45.542Z,56.90
2019-03-04T11:52:18.111Z,57.00
2019-03-04T11:54:50.302Z,57.10
2019-03-04T11:57:22.969Z,57.20
2019-03-04T11:59:55.515Z,57.50
2019-03-04T12:02:38.343Z,58.00
2019-03-04T12:05:02.646Z,57.70
2019-03-04T12:07:35.373Z,57.70
2019-03-04T12:10:10.028Z,58.00
2019-03-04T12:12:43.313Z,58.50
2019-03-04T12:15:18.349Z,59.00
2019-03-04T12:17:50.827Z,59.30
2019-03-04T12:20:24.227Z,59.20
2019-03-04T12:22:56.855Z,59.60
2019-03-04T12:25:29.254Z,60.40
2019-03-04T12:28:02.002Z,60.70
2019-03-04T12:30:34.441Z,61.10
2019-03-04T12:33:08.503Z,61.90
2019-03-04T12:35:40.610Z,63.60
2019-03-04T12:38:12.850Z,64.40
2019-03-04T12:40:45.174Z,64.60
2019-03-04T12:43:18.086Z,65.50
2019-03-04T12:45:50.776Z,66.10
2019-03-04T12:48:23.502Z,66.00
2019-03-04T12:50:55.878Z,67.30
2019-03-04T12:53:36.986Z,66.70
2019-03-04T12:56:23.552Z,65.50
2019-03-04T12:58:56.300Z,66.50
2019-03-04T13:01:29.028Z,68.10
2019-03-04T13:04:01.478Z,69.10
2019-03-04T13:06:34.237Z,69.80
2019-03-04T13:09:14.531Z,70.30
2019-03-04T13:11:41.954Z,70.30
2019-03-04T13:14:14.653Z,69.50
2019-03-04T13:16:46.986Z,70.40
2019-03-04T13:19:19.667Z,71.10
2019-03-04T13:21:52.258Z,70.60
2019-03-04T13:24:24.882Z,70.30
2019-03-04T13:26:57.174Z,71.80
2019-03-04T13:29:30.413Z,70.40
2019-03-04T13:32:02.742Z,69.30
2019-03-04T13:34:35.674Z,70.00
2019-03-04T13:37:07.982Z,69.80
2019-03-04T13:39:40.255Z,70.10
2019-03-04T13:42:12.647Z,70.70
2019-03-04T13:44:45.179Z,70.90
2019-03-04T13:47:17.477Z,71.40
2019-03-04T13:49:49.996Z,71.40
2019-03-04T13:52:22.893Z,71.30
2019-03-04T13:54:55.993Z,71.60
2019-03-04T13:57:28.749Z,71.40
2019-03-04T14:00:01.216Z,71.60
2019-03-04T14:02:34.936Z,71.40
2019-03-04T14:05:10.429Z,71.40
2019-03-04T14:07:43.235Z,71.60
2019-03-04T14:10:18.510Z,71.60
2019-03-04T14:12:51.619Z,71.80
2019-03-04T14:15:27.275Z,72.10
2019-03-04T14:17:59.800Z,71.90
2019-03-04T14:20:33.874Z,72.10
2019-03-04T14:23:06.406Z,72.40
2019-03-04T14:25:39.217Z,72.70
2019-03-04T14:28:11.667Z,72.90
2019-03-04T14:30:44.578Z,73.10
2019-03-04T14:33:17.232Z,73.40
2019-03-04T14:35:49.837Z,73.80
2019-03-04T14:38:22.230Z,74.60
2019-03-04T14:40:54.976Z,74.20
2019-03-04T14:43:27.258Z,74.60
2019-03-04T14:45:59.933Z,74.70
2019-03-04T14:48:32.403Z,74.60
2019-03-04T14:51:04.880Z,74.50
2019-03-04T14:53:37.199Z,74.90
2019-03-04T14:56:09.717Z,75.20
2019-03-04T14:58:42.309Z,75.30
2019-03-04T15:01:15.508Z,75.60
2019-03-04T15:03:47.965Z,75.90
2019-03-04T15:06:20.657Z,75.80
2019-03-04T15:08:53.321Z,76.10
2019-03-04T15:11:26.014Z,76.60
2019-03-04T15:13:58.567Z,77.10
2019-03-04T15:16:31.786Z,77.40
2019-03-04T15:19:04.418Z,77.70
2019-03-04T15:21:36.674Z,78.20
2019-03-04T15:24:09.527Z,78.70
2019-03-04T15:26:44.205Z,78.90
2019-03-04T15:29:15.597Z,79.30
2019-03-04T15:31:47.829Z,79.80
2019-03-04T15:34:20.529Z,79.90
2019-03-04T15:36:52.887Z,80.40
2019-03-04T15:39:25.473Z,80.60
2019-03-04T15:41:57.793Z,80.30
2019-03-04T15:44:30.467Z,80.60
2019-03-04T15:47:02.841Z,81.00
2019-03-04T15:49:35.869Z,81.10
2019-03-04T15:52:08.379Z,81.30
2019-03-04T15:54:40.822Z,81.80
2019-03-04T16:00:36.269Z,81.70
2019-03-04T16:03:09.011Z,81.60
2019-03-04T16:05:41.542Z,82.00
2019-03-04T16:08:14.647Z,82.00
2019-03-04T16:10:47.480Z,83.10
2019-03-04T16:13:19.788Z,82.60
2019-03-04T16:15:52.234Z,82.50
2019-03-04T16:18:24.945Z,82.80
2019-03-04T16:20:57.570Z,82.80
2019-03-04T16:23:30.294Z,83.30
2019-03-04T16:26:05.132Z,83.50
2019-03-04T16:28:37.565Z,83.90
2019-03-04T16:31:10.233Z,84.20
2019-03-04T16:33:42.631Z,83.90
2019-03-04T16:36:15.342Z,84.80
2019-03-04T16:38:47.691Z,84.00
2019-03-04T16:41:20.305Z,84.00
2019-03-04T16:43:52.502Z,85.00
2019-03-04T16:46:25.979Z,84.10
2019-03-04T16:48:58.271Z,84.20
2019-03-04T16:51:31.015Z,84.60
2019-03-04T16:54:03.431Z,84.60
2019-03-04T16:56:36.159Z,85.10
2019-03-04T16:59:08.609Z,85.10
2019-03-04T17:01:40.919Z,85.60
2019-03-04T17:04:13.841Z,85.60
2019-03-04T17:06:46.489Z,85.40
2019-03-04T17:09:20.132Z,85.10
2019-03-04T17:11:53.106Z,85.40
2019-03-04T17:14:25.870Z,85.30
2019-03-04T17:16:59.523Z,85.50
2019-03-04T17:19:32.525Z,86.00
2019-03-04T17:22:06.427Z,86.30
2019-03-04T17:24:39.909Z,86.10
2019-03-04T17:27:12.785Z,86.00
2019-03-04T17:29:45.186Z,86.10
2019-03-04T17:32:18.072Z,86.30
2019-03-04T17:34:50.397Z,86.60
2019-03-04T17:37:22.852Z,86.60
2019-03-04T17:39:55.315Z,86.40
2019-03-04T17:42:28.472Z,86.30
2019-03-04T17:45:01.857Z,86.50
2019-03-04T17:47:34.603Z,86.10
2019-03-04T17:50:09.597Z,86.30
2019-03-04T17:52:42.219Z,86.00
2019-03-04T17:55:16.630Z,86.00
2019-03-04T17:57:49.414Z,85.70
2019-03-04T18:00:21.814Z,86.00
2019-03-04T18:02:55.545Z,85.50
2019-03-04T18:05:27.838Z,85.50
2019-03-04T18:08:00.540Z,85.30
2019-03-04T18:10:33.116Z,85.30
2019-03-04T18:13:07.666Z,85.40
2019-03-04T18:15:42.259Z,85.80
2019-03-04T18:18:15.311Z,85.90
2019-03-04T18:20:47.854Z,86.30
2019-03-04T18:23:20.596Z,86.70
2019-03-04T18:25:55.677Z,86.20
2019-03-04T18:28:30.815Z,86.40
2019-03-04T18:31:05.343Z,85.90
2019-03-04T18:33:40.106Z,86.30
2019-03-04T18:36:15.776Z,86.30
2019-03-04T18:38:50.844Z,86.60
2019-03-04T18:41:25.682Z,87.00
2019-03-04T18:44:00.937Z,87.10
2019-03-04T18:46:36.010Z,87.30
2019-03-04T18:49:08.782Z,87.50
2019-03-04T18:51:41.017Z,87.70
2019-03-04T18:54:13.986Z,87.90
2019-03-04T18:56:46.309Z,88.20
2019-03-04T18:59:18.755Z,88.50
2019-03-04T19:01:51.513Z,88.70
2019-03-04T19:04:23.920Z,89.70
2019-03-04T19:06:56.503Z,90.20
2019-03-04T19:09:29.249Z,90.10
2019-03-04T19:12:01.671Z,89.80
2019-03-04T19:14:34.623Z,90.00
2019-03-04T19:17:07.959Z,90.50
2019-03-04T19:19:40.877Z,90.10
2019-03-04T19:22:13.203Z,90.20
2019-03-04T19:24:45.587Z,89.90
2019-03-04T19:27:18.417Z,90.20
2019-03-04T19:29:50.940Z,90.40
2019-03-04T19:32:23.669Z,90.40
2019-03-04T19:34:56.345Z,90.50
2019-03-04T19:37:29.393Z,90.70
2019-03-04T19:40:01.783Z,90.70
2019-03-04T19:42:34.905Z,91.00
2019-03-04T19:45:09.634Z,90.80
2019-03-04T19:47:41.907Z,90.80
2019-03-04T19:50:15.445Z,91.00
2019-03-04T19:52:48.016Z,91.10
2019-03-04T19:55:20.710Z,91.30
2019-03-04T19:57:53.199Z,91.40
2019-03-04T20:00:28.083Z,91.60
2019-03-04T20:03:00.791Z,91.50
2019-03-04T20:05:39.778Z,91.60
2019-03-04T20:08:12.609Z,91.70
2019-03-04T20:10:46.058Z,91.60
2019-03-04T20:13:18.594Z,91.80
2019-03-04T20:15:51.665Z,91.80
2019-03-04T20:18:24.526Z,91.80
2019-03-04T20:20:56.944Z,91.90
2019-03-04T20:23:29.693Z,91.90
2019-03-04T20:26:02.523Z,92.00
2019-03-04T20:28:34.948Z,92.10
2019-03-04T20:31:07.870Z,92.30
2019-03-04T20:33:40.518Z,92.40
2019-03-04T20:36:13.267Z,92.50
2019-03-04T20:38:47.977Z,92.40
2019-03-04T20:41:20.510Z,92.40
2019-03-04T20:43:52.812Z,92.50
2019-03-04T20:46:25.419Z,92.60
2019-03-04T20:48:58.088Z,92.70
2019-03-04T20:51:30.614Z,92.70
2019-03-04T20:54:02.944Z,92.80
2019-03-04T20:56:36.046Z,92.80
2019-03-04T20:59:08.867Z,92.90
2019-03-04T21:01:41.857Z,92.90
2019-03-04T21:04:14.341Z,93.20
2019-03-04T21:06:47.211Z,93.10
2019-03-04T21:09:20.006Z,93.20
2019-03-04T21:11:52.628Z,93.30
2019-03-04T21:14:25.063Z,93.30
2019-03-04T21:16:58.155Z,93.40
2019-03-04T21:19:30.529Z,93.40
2019-03-04T21:22:03.134Z,93.40
2019-03-04T21:24:35.605Z,93.50
2019-03-04T21:27:08.246Z,93.60
2019-03-04T21:29:42.778Z,93.50
2019-03-04T21:32:18.230Z,94.00
2019-03-04T21:34:53.580Z,93.50
2019-03-04T21:37:28.582Z,93.60
2019-03-04T21:40:03.213Z,93.70
2019-03-04T21:42:38.871Z,93.50
2019-03-04T21:45:14.164Z,93.50
2019-03-04T21:47:49.568Z,93.70
2019-03-04T21:50:24.802Z,93.60
2019-03-04T21:53:00.314Z,93.60
2019-03-04T21:55:36.503Z,93.50
2019-03-04T21:58:08.951Z,93.90
2019-03-04T22:00:41.595Z,93.50
2019-03-04T22:03:17.520Z,93.50
2019-03-04T22:05:50.822Z,93.40
2019-03-04T22:08:24.215Z,93.50
2019-03-04T22:10:56.866Z,93.40
2019-03-04T22:13:29.492Z,93.50
2019-03-04T22:16:02.263Z,93.40
2019-03-04T22:18:35.488Z,93.40
2019-03-04T22:21:16.566Z,93.30
2019-03-04T22:23:41.888Z,93.50
2019-03-04T22:26:14.238Z,93.50
2019-03-04T22:28:47.627Z,93.50
2019-03-04T22:31:20.009Z,93.50
2019-03-04T22:33:52.348Z,93.50
2019-03-04T22:36:24.923Z,93.70
2019-03-04T22:38:57.805Z,93.60
2019-03-04T22:41:30.557Z,93.70
2019-03-04T22:44:03.124Z,93.80
2019-03-04T22:46:35.615Z,93.90
2019-03-04T22:49:09.338Z,93.90
2019-03-04T22:51:41.853Z,94.10
2019-03-04T22:54:14.534Z,94.20
2019-03-04T22:56:47.000Z,94.20
2019-03-04T22:59:19.313Z,94.30
2019-03-04T23:01:54.389Z,94.30
2019-03-04T23:04:28.454Z,94.30
2019-03-04T23:07:03.154Z,94.40
2019-03-04T23:09:38.352Z,94.30
2019-03-04T23:12:13.092Z,94.30
2019-03-04T23:14:45.614Z,94.40
2019-03-04T23:17:18.071Z,94.30
2019-03-04T23:19:50.528Z,94.40
2019-03-04T23:22:23.019Z,94.40
2019-03-04T23:24:55.350Z,94.40
2019-03-04T23:27:27.921Z,94.50
2019-03-04T23:30:00.384Z,94.50
2019-03-04T23:32:33.630Z,94.80
2019-03-04T23:35:06.707Z,94.50
2019-03-04T23:37:40.282Z,94.60
2019-03-04T23:40:13.801Z,94.40
2019-03-04T23:42:46.334Z,94.40
2019-03-04T23:45:18.626Z,94.30
2019-03-04T23:47:51.192Z,94.30
2019-03-04T23:50:25.077Z,94.30
2019-03-04T23:52:57.832Z,94.20
2019-03-04T23:55:30.191Z,94.20
2019-03-04T23:58:02.827Z,94.20
